Argos, Greece
Current Conditions -  °F | °C
As of 10:20 AM on Monday 29 Dec 2014 (Local Time) from LGEL Reporting Station
Scattered Clouds Scattered Clouds  
Wind Chill: 57°   Ceiling: Unl
Heat Index: 57°   Visibility: 6mi
Dew Point: 46°   Wind: 6mph
Humidity: 67%   Direction: 340°NNW
Pressure: 29.71"   Gusts: NA
Location:  37.63°N, 22.73°E
Report Text: LGEL 290820Z 34005KT 9999 FEW025 SCT070 14/08 Q1006
Loading
Personal Weather Stations






























Interactive Weather Map New forecast layout! Learn more

10-Day Weather Forecast

Advertisements
Track Severe Weather on mobile